Flight Track Log - Related Links

Times and Time Zones

All times are in EDT time to prevent confusion due to time zone crossing. See the DAL3759 flight status page for this flight to view local times or setup timezone preferences in your user account.

Time Position Orientation Groundspeed Altitude Reporting Facility
EDT Latitude Longitude Course Direction KTS MPH feet Rate Location/Type
Fri 06:29:34 PM 41.9333 -87.9167 166° South 177 204 1,900  Level Chicago TRACON
Fri 06:30:34 PM 41.8833 -87.9000 166° South 202 232 4,200 1,789 Climbing Chicago TRACON
Fri 06:31:28 PM 41.8333 -87.9000 180° South 248 285 5,300 1,682 Climbing Chicago TRACON
Fri 06:32:46 PM 41.7389 -87.8558 161° South 274 315 7,900 2,400 Climbing Chicago Center
Fri 06:33:48 PM 41.6692 -87.7919 146° Southeast 281 323 10,900 2,710 Climbing Chicago Center
Fri 06:34:50 PM 41.5983 -87.7281 146° Southeast 293 337 13,500 2,468 Climbing Chicago Center
Fri 06:35:52 PM 41.5250 -87.6603 145° Southeast 318 366 16,000 2,032 Climbing Chicago Center
Fri 06:36:54 PM 41.4442 -87.5883 146° Southeast 322 371 17,700 1,258 Climbing Chicago Center
Fri 06:37:56 PM 41.3553 -87.5611 167° South 355 409 18,600 816 Climbing Chicago Center
Fri 06:38:59 PM 41.2528 -87.5344 169° South 369 425 19,400 960 Climbing Chicago Center
Fri 06:40:01 PM 41.1583 -87.4553 148° Southeast 396 456 20,600 1,113 Climbing Chicago Center
Fri 06:41:03 PM 41.0417 -87.3600 148° Southeast 407 468 21,700 1,161 Climbing Chicago Center
Fri 06:42:05 PM 40.9442 -87.2786 148° Southeast 410 472 23,000 629 Climbing Chicago Center
Fri 06:43:07 PM 40.8461 -87.1986 148° Southeast 412 474 23,000  Level Chicago Center
Fri 06:44:09 PM 40.7464 -87.1169 148° Southeast 417 480 23,000  Level Chicago Center
Fri 06:45:11 PM 40.6336 -87.0261 149° Southeast 430 495 23,000  Level Chicago Center
Fri 06:46:13 PM 40.5308 -86.9422 148° Southeast 432 497 23,000  Level Chicago Center
Fri 06:47:15 PM 40.4269 -86.8578 148° Southeast 435 501 23,000  Level Chicago Center
Fri 06:48:18 PM 40.3219 -86.7736 149° Southeast 439 505 23,000  Level Chicago Center
Fri 06:49:20 PM 40.2172 -86.6889 148° Southeast 441 507 23,000  Level Chicago Center
Fri 06:50:09 PM 40.1100 -86.6022 148° Southeast 446 513 23,000  Level Indianapolis Center
Fri 06:51:11 PM 40.0033 -86.5172 149° Southeast 447 514 23,000 -336 Level Indianapolis Center
Fri 06:52:14 PM 39.8964 -86.4322 149° Southeast 447 514 22,300 -1,296 Descending Indianapolis Center
Fri 06:53:16 PM 39.8025 -86.3278 139° Southeast 455 524 20,300 -1,984 Descending Indianapolis Center
Fri 06:54:18 PM 39.7481 -86.1669 114° Southeast 461 531 18,200 -1,984 Descending Indianapolis Center
Fri 06:55:20 PM 39.7000 -86.0228 113° Southeast 443 510 16,200 -1,935 Descending Indianapolis Center
Fri 06:56:22 PM 39.6575 -85.8969 114° Southeast 395 455 14,200 -1,951 Descending Indianapolis Center
Fri 06:57:23 PM 39.6161 -85.7783 114° Southeast 372 428 12,200 -1,561 Descending Indianapolis Center
Fri 06:58:25 PM 39.5783 -85.6619 113° Southeast 357 411 11,000 -581 Descending Indianapolis Center
Fri 06:59:27 PM 39.5300 -85.5219 114° Southeast 355 409 11,000  Level Indianapolis Center
Fri 07:01:31 PM 39.4189 -85.3069 124° Southeast 357 411 11,000  Level Indianapolis Center
Fri 07:02:33 PM 39.3614 -85.1994 125° Southeast 359 413 11,000  Level Indianapolis Center
Fri 07:03:35 PM 39.3033 -85.0939 125° Southeast 359 413 11,000  Level Indianapolis Center
Fri 07:04:37 PM 39.2444 -84.9892 126° Southeast 359 413 11,000 -242 Level Indianapolis Center
Fri 07:05:39 PM 39.1786 -84.8711 126° Southeast 341 392 10,500 -919 Descending Indianapolis Center
Fri 07:06:41 PM 39.1386 -84.7983 125° Southeast 297 342 9,100 -1,597 Descending Indianapolis Center
Fri 07:07:43 PM 39.0517 -84.7797 171° South 271 312 7,200 -1,610 Descending Indianapolis Center
Fri 07:08:44 PM 38.9794 -84.7797 180° South 264 304 5,800 -1,733 Descending Indianapolis Center
Fri 07:09:58 PM 38.9000 -84.7500 164° South 251 289 3,300 -1,254 Descending Cincinnati TRACON
Fri 07:10:58 PM 38.9167 -84.6833 72° East 182 209 3,000 -500 Descending Cincinnati TRACON
Fri 07:11:58 PM 38.9667 -84.6667 15° North 156 180 2,300 -739 Descending Cincinnati TRACON
Fri 07:13:16 PM 39.0167 -84.6667 360° North 127 146 1,300 -769 Descending Cincinnati TRACON

Login

Don't have an account? Register now (free) for customized features, flight alerts, and more!